createdAt,value
2022-12-08T00:04:13.355Z,12.47
2022-12-08T00:07:42.335Z,13.13
2022-12-08T00:13:17.738Z,12.07
2022-12-08T00:16:06.344Z,12.83
2022-12-08T00:21:41.359Z,13.30
2022-12-08T00:24:34.545Z,13.10
2022-12-08T00:27:23.193Z,12.27
2022-12-08T00:30:13.045Z,12.67
2022-12-08T00:33:01.450Z,12.20
2022-12-08T00:38:35.877Z,13.10
2022-12-08T00:44:18.694Z,13.40
2022-12-08T00:49:55.881Z,13.07
2022-12-08T00:52:44.309Z,13.10
2022-12-08T00:58:14.118Z,12.50
2022-12-08T01:01:03.609Z,11.77
2022-12-08T01:09:19.458Z,12.03
2022-12-08T01:12:09.281Z,12.40
2022-12-08T01:17:38.628Z,11.43
2022-12-08T01:20:27.039Z,12.13
2022-12-08T01:26:04.889Z,11.53
2022-12-08T01:28:53.365Z,11.10
2022-12-08T01:34:32.226Z,11.57
2022-12-08T01:37:21.489Z,10.63
2022-12-08T01:40:11.701Z,10.27
2022-12-08T01:45:46.865Z,10.50
2022-12-08T01:48:35.240Z,10.43
2022-12-08T01:54:12.733Z,10.07
2022-12-08T01:59:50.789Z,11.07
2022-12-08T02:02:43.002Z,10.57
2022-12-08T02:11:01.312Z,11.07
2022-12-08T02:16:42.093Z,10.57
2022-12-08T02:20:13.219Z,10.33
2022-12-08T02:26:00.303Z,10.07
2022-12-08T02:32:01.746Z,10.07
2022-12-08T02:37:40.145Z,10.40
2022-12-08T02:43:15.540Z,10.43
2022-12-08T02:48:51.017Z,10.57
2022-12-08T02:54:21.240Z,10.57
2022-12-08T03:00:08.674Z,9.97
2022-12-08T03:05:58.063Z,10.17
2022-12-08T03:11:40.478Z,10.53
2022-12-08T03:14:30.024Z,10.23
2022-12-08T03:20:12.863Z,10.23
2022-12-08T03:25:55.720Z,10.17
2022-12-08T03:28:45.100Z,9.70
2022-12-08T03:34:24.517Z,9.67
2022-12-08T03:37:13.160Z,10.50
2022-12-08T03:42:48.373Z,9.80
2022-12-08T03:48:18.377Z,10.50
2022-12-08T03:51:07.027Z,10.80
2022-12-08T03:56:57.660Z,11.00
2022-12-08T03:59:46.093Z,10.93
2022-12-08T04:05:14.009Z,10.57
2022-12-08T04:10:48.256Z,11.20
2022-12-08T04:16:20.213Z,11.23
2022-12-08T04:21:56.924Z,10.67
2022-12-08T04:24:45.533Z,10.93
2022-12-08T04:30:21.515Z,10.87
2022-12-08T04:35:53.131Z,10.97
2022-12-08T04:41:49.278Z,10.33
2022-12-08T04:47:27.189Z,11.80
2022-12-08T04:50:17.875Z,10.97
2022-12-08T04:55:57.493Z,11.33
2022-12-08T04:58:46.368Z,9.90
2022-12-08T05:01:34.636Z,10.60
2022-12-08T05:04:22.717Z,10.30
2022-12-08T05:07:11.112Z,9.97
2022-12-08T05:12:48.343Z,10.13
2022-12-08T05:18:20.225Z,9.87
2022-12-08T05:23:53.133Z,9.80
2022-12-08T05:26:41.501Z,9.60
2022-12-08T05:32:17.302Z,10.63
2022-12-08T05:38:07.757Z,9.17
2022-12-08T05:43:44.193Z,9.07
2022-12-08T05:49:32.777Z,9.73
2022-12-08T05:55:08.401Z,9.77
2022-12-08T05:57:56.587Z,10.37
2022-12-08T06:00:45.304Z,9.43
2022-12-08T06:06:13.841Z,10.03
2022-12-08T06:09:05.338Z,9.27
2022-12-08T06:14:39.734Z,9.77
2022-12-08T06:20:17.556Z,9.83
2022-12-08T06:25:53.443Z,9.63
2022-12-08T06:28:42.633Z,10.13
2022-12-08T06:34:16.720Z,10.40
2022-12-08T06:39:51.739Z,10.03
2022-12-08T06:45:30.212Z,9.53
2022-12-08T06:51:12.192Z,9.73
2022-12-08T06:54:00.793Z,8.80
2022-12-08T06:56:49.202Z,9.30
2022-12-08T07:02:26.767Z,9.47
2022-12-08T07:08:03.129Z,9.63
2022-12-08T07:13:40.743Z,9.63
2022-12-08T07:16:29.165Z,10.00
2022-12-08T07:19:20.438Z,10.00
2022-12-08T07:24:59.506Z,9.70
2022-12-08T07:27:47.682Z,9.93
2022-12-08T07:30:35.848Z,9.00
2022-12-08T07:33:24.689Z,9.67
2022-12-08T07:36:13.441Z,10.30
2022-12-08T07:41:45.779Z,9.83
2022-12-08T07:47:15.821Z,10.37
2022-12-08T07:52:54.868Z,10.00
2022-12-08T07:58:25.628Z,10.93
2022-12-08T08:01:22.952Z,10.33
2022-12-08T08:07:00.190Z,10.17
2022-12-08T08:12:36.677Z,10.63
2022-12-08T08:18:14.326Z,11.07
2022-12-08T08:26:26.541Z,12.13
2022-12-08T08:31:56.340Z,12.13
2022-12-08T08:37:48.773Z,11.40
2022-12-08T08:43:35.986Z,13.03
2022-12-08T08:46:22.138Z,12.93
2022-12-08T08:51:56.564Z,12.53
2022-12-08T08:57:29.067Z,12.43
2022-12-08T09:03:21.495Z,12.47
2022-12-08T09:08:51.235Z,12.63
2022-12-08T09:14:25.856Z,11.37
2022-12-08T09:17:14.672Z,13.43
2022-12-08T09:20:03.499Z,13.87
2022-12-08T09:22:52.205Z,14.93
2022-12-08T09:28:28.205Z,14.77
2022-12-08T09:34:04.638Z,14.83
2022-12-08T09:36:52.707Z,13.97
2022-12-08T09:39:41.344Z,14.53
2022-12-08T09:45:22.739Z,14.97
2022-12-08T09:51:15.408Z,14.50
2022-12-08T09:56:58.807Z,14.03
2022-12-08T10:02:42.979Z,15.00
2022-12-08T10:08:22.773Z,14.47
2022-12-08T10:14:04.777Z,14.43
2022-12-08T10:19:37.846Z,14.67
2022-12-08T10:28:14.974Z,13.93
2022-12-08T10:36:50.465Z,14.37
2022-12-08T10:39:42.870Z,14.70
2022-12-08T10:42:35.243Z,14.87
2022-12-08T10:48:19.654Z,14.93
2022-12-08T10:56:55.312Z,12.90
2022-12-08T10:59:45.895Z,12.33
2022-12-08T11:05:20.036Z,14.53
2022-12-08T11:17:10.476Z,13.37
2022-12-08T11:22:47.118Z,12.20
2022-12-08T11:28:16.366Z,11.40
2022-12-08T11:33:47.840Z,11.70
2022-12-08T11:39:28.210Z,11.80
2022-12-08T11:45:13.386Z,13.27
2022-12-08T11:50:59.693Z,11.97
2022-12-08T11:53:54.144Z,12.07
2022-12-08T11:59:46.900Z,12.13
2022-12-08T12:06:09.321Z,11.77
2022-12-08T12:11:43.375Z,13.47
2022-12-08T12:17:33.618Z,13.20
2022-12-08T12:26:19.653Z,12.77
2022-12-08T12:29:11.432Z,13.47
2022-12-08T12:34:50.887Z,13.60
2022-12-08T12:43:34.128Z,13.13
2022-12-08T12:46:43.900Z,14.13
2022-12-08T12:52:48.543Z,13.67
2022-12-08T12:58:43.848Z,13.10
2022-12-08T13:04:58.921Z,13.10
2022-12-08T13:13:26.125Z,11.60
2022-12-08T13:19:02.411Z,13.90
2022-12-08T13:21:51.174Z,13.60
2022-12-08T13:24:41.020Z,13.07
2022-12-08T13:30:46.933Z,13.80
2022-12-08T13:36:23.692Z,13.50
2022-12-08T13:42:07.060Z,12.70
2022-12-08T13:48:21.727Z,14.07
2022-12-08T13:59:35.288Z,14.10
2022-12-08T14:05:34.830Z,13.33
2022-12-08T14:10:39.719Z,14.43
2022-12-08T14:13:32.259Z,13.83
2022-12-08T14:19:17.246Z,14.70
2022-12-08T14:24:50.148Z,14.17
2022-12-08T14:30:26.732Z,14.40
2022-12-08T14:36:10.584Z,14.20
2022-12-08T14:42:05.695Z,13.30
2022-12-08T14:47:52.610Z,13.90
2022-12-08T14:53:39.463Z,13.17
2022-12-08T14:59:18.989Z,14.13
2022-12-08T15:05:11.976Z,13.63
2022-12-08T15:08:03.853Z,13.63
2022-12-08T15:13:55.171Z,14.20
2022-12-08T15:19:56.998Z,13.70
2022-12-08T15:25:29.411Z,13.70
2022-12-08T15:28:24.001Z,14.50
2022-12-08T15:31:12.661Z,14.43
2022-12-08T15:36:53.956Z,13.97
2022-12-08T15:45:11.192Z,12.97
2022-12-08T15:50:41.635Z,11.43
2022-12-08T15:53:30.325Z,11.27
2022-12-08T15:59:06.090Z,11.30
2022-12-08T16:05:18.320Z,11.00
2022-12-08T16:10:45.511Z,11.03
2022-12-08T16:19:20.425Z,14.93
2022-12-08T16:25:14.748Z,12.63
2022-12-08T16:28:05.262Z,11.60
2022-12-08T16:33:28.004Z,11.77
2022-12-08T16:39:00.010Z,11.27
2022-12-08T16:47:21.226Z,11.67
2022-12-08T16:52:48.340Z,11.27
2022-12-08T16:55:39.214Z,10.63
2022-12-08T17:01:18.933Z,11.90
2022-12-08T17:04:30.483Z,13.20
2022-12-08T17:09:45.025Z,16.83
2022-12-08T17:15:19.350Z,12.27
2022-12-08T17:20:51.872Z,10.77
2022-12-08T17:26:25.229Z,11.70
2022-12-08T17:31:59.983Z,12.57
2022-12-08T17:37:35.132Z,12.57
2022-12-08T17:40:28.155Z,13.13
2022-12-08T17:43:16.365Z,11.50
2022-12-08T17:48:49.159Z,13.43
2022-12-08T17:51:39.272Z,13.43
2022-12-08T17:57:12.100Z,13.47
2022-12-08T18:02:39.479Z,13.53
2022-12-08T18:08:33.104Z,13.30
2022-12-08T18:14:10.181Z,13.70
2022-12-08T18:19:40.073Z,13.70
2022-12-08T18:25:19.456Z,13.97
2022-12-08T18:30:51.242Z,14.23
2022-12-08T18:36:56.124Z,14.57
2022-12-08T18:39:46.410Z,14.17
2022-12-08T18:45:23.210Z,14.30
2022-12-08T18:48:13.695Z,13.90
2022-12-08T18:51:03.904Z,14.43
2022-12-08T18:56:43.627Z,14.00
2022-12-08T19:02:21.209Z,14.40
2022-12-08T19:05:11.762Z,14.03
2022-12-08T19:08:03.463Z,13.37
2022-12-08T19:10:53.468Z,14.30
2022-12-08T19:19:39.593Z,14.43
2022-12-08T19:22:29.530Z,14.10
2022-12-08T19:25:32.762Z,14.67
2022-12-08T19:31:07.953Z,14.73
2022-12-08T19:36:44.424Z,14.77
2022-12-08T19:40:02.181Z,15.03
2022-12-08T19:45:38.964Z,14.40
2022-12-08T19:48:32.340Z,14.50
2022-12-08T19:54:59.045Z,14.97
2022-12-08T19:57:50.547Z,15.40
2022-12-08T20:03:38.544Z,14.87
2022-12-08T20:09:10.710Z,14.23
2022-12-08T20:14:49.764Z,14.80
2022-12-08T20:20:24.829Z,15.17
2022-12-08T20:26:23.438Z,14.97
2022-12-08T20:34:35.245Z,15.10
2022-12-08T20:44:09.810Z,15.50
2022-12-08T20:46:58.591Z,16.60
2022-12-08T20:52:58.547Z,15.97
2022-12-08T20:58:41.789Z,15.87
2022-12-08T21:04:24.075Z,15.93
2022-12-08T21:07:17.826Z,15.50
2022-12-08T21:10:08.679Z,16.13
2022-12-08T21:15:47.171Z,16.17
2022-12-08T21:21:18.548Z,16.80
2022-12-08T21:24:10.640Z,15.77
2022-12-08T21:29:45.268Z,16.43
2022-12-08T21:35:25.213Z,16.23
2022-12-08T21:38:13.718Z,15.47
2022-12-08T21:41:05.130Z,17.63
2022-12-08T21:46:43.807Z,15.57
2022-12-08T21:52:56.569Z,17.17
2022-12-08T21:58:26.389Z,17.73
2022-12-08T22:04:09.217Z,16.73
2022-12-08T22:09:50.377Z,15.83
2022-12-08T22:19:19.982Z,17.30
2022-12-08T23:08:37.306Z,16.50
2022-12-08T23:11:28.879Z,16.93
2022-12-08T23:17:04.573Z,17.50
2022-12-08T23:22:40.553Z,16.60
2022-12-08T23:28:25.325Z,15.50
2022-12-08T23:33:59.948Z,15.77
2022-12-08T23:36:48.677Z,14.93
2022-12-08T23:45:05.480Z,15.37
2022-12-08T23:50:39.584Z,14.87
2022-12-08T23:56:17.406Z,14.53
